createdAt,value
2019-05-26T00:00:41.135Z,102230.84
2019-05-26T00:03:10.718Z,102227.80
2019-05-26T00:05:40.186Z,102223.41
2019-05-26T00:08:09.702Z,102217.84
2019-05-26T00:10:39.115Z,102213.17
2019-05-26T00:13:08.582Z,102214.94
2019-05-26T00:15:38.101Z,102212.18
2019-05-26T00:18:07.477Z,102204.75
2019-05-26T00:20:37.193Z,102207.52
2019-05-26T00:23:06.556Z,102198.55
2019-05-26T00:25:35.980Z,102200.50
2019-05-26T00:28:05.453Z,102203.13
2019-05-26T00:30:34.970Z,102207.92
2019-05-26T00:33:04.478Z,102203.52
2019-05-26T00:35:33.933Z,102204.44
2019-05-26T00:38:03.359Z,102193.16
2019-05-26T00:40:32.736Z,102190.66
2019-05-26T00:43:02.222Z,102184.09
2019-05-26T00:45:31.900Z,102177.53
2019-05-26T00:48:01.340Z,102177.62
2019-05-26T00:50:30.821Z,102174.05
2019-05-26T00:53:00.310Z,102168.87
2019-05-26T00:55:29.684Z,102170.65
2019-05-26T00:57:59.105Z,102165.39
2019-05-26T01:00:42.285Z,102168.47
2019-05-26T01:03:12.296Z,102164.53
2019-05-26T01:05:41.769Z,102160.73
2019-05-26T01:08:11.407Z,102173.00
2019-05-26T01:10:41.038Z,102171.78
2019-05-26T01:13:10.437Z,102162.72
2019-05-26T01:15:39.849Z,102162.72
2019-05-26T01:18:09.317Z,102161.19
2019-05-26T01:20:38.826Z,102159.05
2019-05-26T01:23:08.278Z,102166.98
2019-05-26T01:25:37.743Z,102157.88
2019-05-26T01:28:07.282Z,102157.88
2019-05-26T01:30:38.279Z,102151.36
2019-05-26T01:33:08.008Z,102159.19
2019-05-26T01:35:41.077Z,102153.53
2019-05-26T01:38:23.189Z,102152.22
2019-05-26T01:40:43.204Z,102146.19
2019-05-26T01:43:12.557Z,102142.63
2019-05-26T01:45:42.041Z,102133.06
2019-05-26T01:48:11.409Z,102126.05
2019-05-26T01:50:40.795Z,102124.24
2019-05-26T01:53:10.190Z,102122.61
2019-05-26T01:55:39.634Z,102121.84
2019-05-26T01:58:09.019Z,102124.02
2019-05-26T02:00:38.558Z,102120.12
2019-05-26T02:03:07.962Z,102117.05
2019-05-26T02:05:37.382Z,102122.84
2019-05-26T02:08:06.842Z,102126.00
2019-05-26T02:10:36.249Z,102112.55
2019-05-26T02:13:05.762Z,102106.81
2019-05-26T02:15:35.134Z,102106.81
2019-05-26T02:18:04.536Z,102103.82
2019-05-26T02:20:33.955Z,102101.78
2019-05-26T02:23:03.385Z,102103.50
2019-05-26T02:25:32.751Z,102103.55
2019-05-26T02:28:02.125Z,102098.80
2019-05-26T02:30:31.539Z,102104.09
2019-05-26T02:33:00.934Z,102105.86
2019-05-26T02:35:30.261Z,102091.11
2019-05-26T02:37:59.676Z,102092.19
2019-05-26T02:40:29.248Z,102089.24
2019-05-26T02:42:58.617Z,102086.75
2019-05-26T02:45:28.124Z,102087.26
2019-05-26T02:47:57.615Z,102083.86
2019-05-26T02:50:27.276Z,102083.09
2019-05-26T02:52:56.641Z,102083.09
2019-05-26T02:55:26.551Z,102080.06
2019-05-26T02:57:55.914Z,102079.28
2019-05-26T03:00:42.466Z,102064.94
2019-05-26T03:03:12.969Z,102056.26
2019-05-26T03:05:44.791Z,102052.86
2019-05-26T03:08:14.523Z,102073.45
2019-05-26T03:10:44.037Z,102072.22
2019-05-26T03:13:17.722Z,102078.46
2019-05-26T03:15:48.147Z,102077.28
2019-05-26T03:18:18.651Z,102075.20
2019-05-26T03:20:48.191Z,102069.01
2019-05-26T03:23:17.979Z,102063.07
2019-05-26T03:25:47.470Z,102063.52
2019-05-26T03:28:16.818Z,102060.58
2019-05-26T03:30:46.304Z,102060.58
2019-05-26T03:33:15.748Z,102063.25
2019-05-26T03:35:45.131Z,102062.88
2019-05-26T03:38:14.525Z,102060.63
2019-05-26T03:40:43.913Z,102058.01
2019-05-26T03:43:13.279Z,102060.63
2019-05-26T03:46:17.547Z,102061.57
2019-05-26T03:48:47.184Z,102055.92
2019-05-26T03:51:16.785Z,102055.92
2019-05-26T03:53:46.130Z,102054.69
2019-05-26T03:56:15.522Z,102041.58
2019-05-26T03:58:45.075Z,102051.61
2019-05-26T04:01:14.458Z,102050.76
2019-05-26T04:03:43.886Z,102037.91
2019-05-26T04:06:13.225Z,102037.91
2019-05-26T04:08:42.593Z,102039.00
2019-05-26T04:11:11.991Z,102037.77
2019-05-26T04:13:41.371Z,102030.58
2019-05-26T04:16:10.719Z,102030.58
2019-05-26T04:18:40.135Z,102031.94
2019-05-26T04:21:09.515Z,102031.94
2019-05-26T04:23:38.864Z,102040.20
2019-05-26T04:26:08.281Z,102032.75
2019-05-26T04:28:37.661Z,102030.49
2019-05-26T04:31:07.092Z,102035.73
2019-05-26T04:33:36.508Z,102031.80
2019-05-26T04:36:05.843Z,102028.19
2019-05-26T04:38:35.194Z,102036.19
2019-05-26T04:41:04.582Z,102037.91
2019-05-26T04:43:33.938Z,102035.61
2019-05-26T04:46:03.335Z,102025.65
2019-05-26T04:48:32.667Z,102025.65
2019-05-26T04:51:02.021Z,102029.91
2019-05-26T04:53:31.469Z,102029.95
2019-05-26T04:56:00.855Z,102027.28
2019-05-26T04:58:30.223Z,102034.30
2019-05-26T05:00:59.628Z,102028.33
2019-05-26T05:03:29.037Z,102019.87
2019-05-26T05:05:58.410Z,102017.25
2019-05-26T05:08:27.755Z,102015.53
2019-05-26T05:10:57.173Z,102020.78
2019-05-26T05:13:26.535Z,102012.91
2019-05-26T05:15:55.922Z,102005.98
2019-05-26T05:18:25.379Z,102007.20
2019-05-26T05:20:54.725Z,102006.34
2019-05-26T05:23:24.091Z,101995.09
2019-05-26T05:25:53.589Z,102002.72
2019-05-26T05:28:23.768Z,102002.72
2019-05-26T05:30:53.203Z,101994.45
2019-05-26T05:33:22.577Z,101984.52
2019-05-26T05:35:51.936Z,101984.52
2019-05-26T05:38:21.308Z,102000.65
2019-05-26T05:40:59.392Z,101979.35
2019-05-26T05:43:21.742Z,101979.35
2019-05-26T05:45:51.135Z,101987.13
2019-05-26T05:48:20.639Z,101987.11
2019-05-26T05:50:50.071Z,101990.16
2019-05-26T05:53:19.637Z,101988.43
2019-05-26T05:55:49.053Z,101990.11
2019-05-26T05:58:18.673Z,101982.42
2019-05-26T06:00:48.369Z,101982.75
2019-05-26T06:03:18.785Z,101983.28
2019-05-26T06:05:48.383Z,101980.20
2019-05-26T06:08:17.891Z,101982.34
2019-05-26T06:10:47.427Z,101982.34
2019-05-26T06:13:16.931Z,101969.13
2019-05-26T06:15:46.320Z,101961.27
2019-05-26T06:18:15.870Z,101968.09
2019-05-26T06:20:45.370Z,101962.84
2019-05-26T06:23:14.802Z,101969.45
2019-05-26T06:25:44.281Z,101964.61
2019-05-26T06:28:13.839Z,101968.86
2019-05-26T06:30:43.407Z,101962.84
2019-05-26T06:33:12.852Z,101967.55
2019-05-26T06:35:42.366Z,101963.16
2019-05-26T06:38:11.872Z,101968.33
2019-05-26T06:40:41.492Z,101959.14
2019-05-26T06:43:10.854Z,101960.44
2019-05-26T06:45:40.325Z,101952.03
2019-05-26T06:48:09.784Z,101950.18
2019-05-26T06:50:39.214Z,101943.17
2019-05-26T06:53:08.607Z,101945.25
2019-05-26T06:55:37.987Z,101945.80
2019-05-26T06:58:07.404Z,101942.77
2019-05-26T07:00:36.835Z,101950.27
2019-05-26T07:03:06.449Z,101940.23
2019-05-26T07:05:35.916Z,101941.91
2019-05-26T07:08:05.506Z,101927.57
2019-05-26T07:10:34.967Z,101930.19
2019-05-26T07:13:04.661Z,101935.84
2019-05-26T07:15:34.079Z,101932.28
2019-05-26T07:18:03.461Z,101919.56
2019-05-26T07:20:32.960Z,101930.38
2019-05-26T07:23:02.594Z,101930.38
2019-05-26T07:25:32.278Z,101921.28
2019-05-26T07:28:01.650Z,101926.89
2019-05-26T07:30:31.162Z,101920.11
2019-05-26T07:33:00.742Z,101915.77
2019-05-26T07:35:32.907Z,101914.45
2019-05-26T07:38:01.658Z,101909.13
2019-05-26T07:40:31.056Z,101913.41
2019-05-26T07:43:00.465Z,101914.32
2019-05-26T07:45:29.918Z,101914.32
2019-05-26T07:47:59.364Z,101912.09
2019-05-26T07:50:28.976Z,101912.09
2019-05-26T07:52:58.402Z,101913.46
2019-05-26T07:55:27.875Z,101913.41
2019-05-26T07:57:57.208Z,101912.09
2019-05-26T08:00:26.715Z,101900.44
2019-05-26T08:02:56.151Z,101900.44
2019-05-26T08:05:25.604Z,101905.19
2019-05-26T08:08:09.555Z,101887.19
2019-05-26T08:10:26.024Z,101887.19
2019-05-26T08:12:55.383Z,101882.70
2019-05-26T08:15:24.741Z,101882.62
2019-05-26T08:17:54.136Z,101882.42
2019-05-26T08:20:23.616Z,101881.74
2019-05-26T08:22:52.980Z,101881.74
2019-05-26T08:25:22.369Z,101873.38
2019-05-26T08:27:51.750Z,101875.04
2019-05-26T08:30:21.483Z,101872.78
2019-05-26T08:32:50.851Z,101872.73
2019-05-26T08:35:20.213Z,101868.70
2019-05-26T08:37:49.528Z,101873.95
2019-05-26T08:40:19.190Z,101883.99
2019-05-26T08:42:50.001Z,101878.44
2019-05-26T08:45:21.680Z,101880.28
2019-05-26T08:47:51.160Z,101874.55
2019-05-26T08:50:21.431Z,101878.44
2019-05-26T08:52:50.844Z,101877.66
2019-05-26T08:55:20.420Z,101868.94
2019-05-26T08:57:49.831Z,101864.60
2019-05-26T09:00:21.054Z,101866.31
2019-05-26T09:02:50.439Z,101863.75
2019-05-26T09:05:20.245Z,101859.90
2019-05-26T09:07:49.607Z,101862.06
2019-05-26T09:10:19.302Z,101854.70
2019-05-26T09:13:00.215Z,101860.44
2019-05-26T09:15:20.654Z,101846.84
2019-05-26T09:17:50.007Z,101847.64
2019-05-26T09:20:19.681Z,101844.08
2019-05-26T09:22:49.057Z,101851.08
2019-05-26T09:25:19.132Z,101851.08
2019-05-26T09:27:48.463Z,101844.92
2019-05-26T09:30:18.281Z,101845.33
2019-05-26T09:32:47.620Z,101841.84
2019-05-26T09:35:17.054Z,101833.06
2019-05-26T09:37:46.405Z,101836.83
2019-05-26T09:40:15.833Z,101828.35
2019-05-26T09:42:45.178Z,101834.31
2019-05-26T09:45:14.805Z,101836.33
2019-05-26T09:47:44.136Z,101841.48
2019-05-26T09:50:14.885Z,101840.17
2019-05-26T09:52:44.239Z,101841.89
2019-05-26T09:55:13.875Z,101841.89
2019-05-26T09:57:43.247Z,101858.80
2019-05-26T10:00:16.039Z,101847.36
2019-05-26T10:02:44.664Z,101865.73
2019-05-26T10:05:14.195Z,101865.73
2019-05-26T10:07:43.626Z,101868.35
2019-05-26T10:10:14.474Z,101866.12
2019-05-26T10:12:43.843Z,101863.64
2019-05-26T10:15:13.713Z,101863.64
2019-05-26T10:17:43.119Z,101855.62
2019-05-26T10:20:12.800Z,101863.41
2019-05-26T10:22:42.134Z,101868.75
2019-05-26T10:25:11.915Z,101865.96
2019-05-26T10:27:41.303Z,101871.58
2019-05-26T10:30:12.478Z,101868.64
2019-05-26T10:32:41.872Z,101870.50
2019-05-26T10:35:12.263Z,101885.53
2019-05-26T10:37:41.588Z,101880.06
2019-05-26T10:40:11.517Z,101880.11
2019-05-26T10:42:40.889Z,101876.35
2019-05-26T10:45:10.920Z,101871.30
2019-05-26T10:47:40.333Z,101871.30
2019-05-26T10:50:10.493Z,101873.47
2019-05-26T10:52:39.854Z,101865.60
2019-05-26T10:55:09.400Z,101855.11
2019-05-26T10:57:38.847Z,101850.27
2019-05-26T11:00:09.204Z,101848.55
2019-05-26T11:02:38.749Z,101846.84
2019-05-26T11:05:08.701Z,101844.62
2019-05-26T11:07:38.060Z,101849.77
2019-05-26T11:10:08.017Z,101836.66
2019-05-26T11:12:37.402Z,101817.69
2019-05-26T11:15:09.406Z,101823.41
2019-05-26T11:17:38.895Z,101823.41
2019-05-26T11:20:08.750Z,101797.13
2019-05-26T11:22:38.079Z,101798.43
2019-05-26T11:25:08.322Z,101793.03
2019-05-26T11:27:37.681Z,101785.84
2019-05-26T11:30:09.140Z,101774.89
2019-05-26T11:32:38.480Z,101774.89
2019-05-26T11:35:08.238Z,101760.91
2019-05-26T11:37:37.646Z,101760.91
2019-05-26T11:40:08.431Z,101746.88
2019-05-26T11:42:37.776Z,101746.88
2019-05-26T11:45:07.449Z,101747.48
2019-05-26T11:47:36.813Z,101745.16
2019-05-26T11:50:06.496Z,101746.84
2019-05-26T11:52:35.917Z,101740.92
2019-05-26T11:55:05.745Z,101747.02
2019-05-26T11:57:36.778Z,101752.73
2019-05-26T12:00:07.259Z,101755.87
2019-05-26T12:02:36.725Z,101768.63
2019-05-26T12:05:09.407Z,101760.91
2019-05-26T12:07:38.805Z,101766.25
2019-05-26T12:10:13.587Z,101764.15
2019-05-26T12:12:40.677Z,101754.05
2019-05-26T12:15:11.636Z,101764.23
2019-05-26T12:17:40.988Z,101758.59
2019-05-26T12:20:12.930Z,101751.33
2019-05-26T12:22:42.281Z,101753.34
2019-05-26T12:25:12.305Z,101748.64
2019-05-26T12:27:41.672Z,101750.51
2019-05-26T12:30:13.035Z,101752.19
2019-05-26T12:32:42.400Z,101739.52
2019-05-26T12:35:12.590Z,101733.51
2019-05-26T12:37:41.909Z,101743.09
2019-05-26T12:40:11.793Z,101740.62
2019-05-26T12:42:41.159Z,101731.34
2019-05-26T12:45:10.917Z,101731.34
2019-05-26T12:47:40.388Z,101726.48
2019-05-26T12:50:10.308Z,101719.78
2019-05-26T12:52:39.625Z,101717.06
2019-05-26T12:55:10.082Z,101719.62
2019-05-26T12:57:39.719Z,101705.89
2019-05-26T13:00:09.952Z,101703.77
2019-05-26T13:02:40.500Z,101704.83
2019-05-26T13:05:10.532Z,101694.42
2019-05-26T13:07:40.076Z,101694.33
2019-05-26T13:10:09.832Z,101683.22
2019-05-26T13:12:39.189Z,101679.28
2019-05-26T13:15:10.151Z,101662.31
2019-05-26T13:17:39.459Z,101662.31
2019-05-26T13:20:09.827Z,101681.75
2019-05-26T13:22:40.623Z,101674.42
2019-05-26T13:25:11.197Z,101681.91
2019-05-26T13:27:40.695Z,101681.91
2019-05-26T13:30:11.707Z,101679.99
2019-05-26T13:32:41.070Z,101686.65
2019-05-26T13:35:11.206Z,101690.74
2019-05-26T13:37:41.101Z,101706.50
2019-05-26T13:40:10.442Z,101706.50
2019-05-26T13:42:39.812Z,101699.55
2019-05-26T13:45:21.812Z,101699.55
2019-05-26T13:47:41.350Z,101693.84
2019-05-26T13:50:11.386Z,101692.43
2019-05-26T13:52:40.736Z,101689.59
2019-05-26T13:55:10.658Z,101691.66
2019-05-26T13:57:40.006Z,101684.18
2019-05-26T14:00:10.771Z,101684.18
2019-05-26T14:02:40.103Z,101683.63
2019-05-26T14:05:09.809Z,101685.86
2019-05-26T14:07:39.164Z,101691.96
2019-05-26T14:10:09.106Z,101691.96
2019-05-26T14:12:38.471Z,101690.09
2019-05-26T14:15:09.560Z,101685.08
2019-05-26T14:17:39.784Z,101688.86
2019-05-26T14:20:10.191Z,101685.59
2019-05-26T14:22:39.462Z,101694.55
2019-05-26T14:25:09.297Z,101690.82
2019-05-26T14:27:38.673Z,101680.42
2019-05-26T14:30:08.594Z,101680.42
2019-05-26T14:32:37.937Z,101672.55
2019-05-26T14:35:07.524Z,101672.55
2019-05-26T14:37:36.841Z,101667.69
2019-05-26T14:40:06.951Z,101667.05
2019-05-26T14:42:36.302Z,101653.75
2019-05-26T14:45:06.287Z,101653.75
2019-05-26T14:47:35.664Z,101658.57
2019-05-26T14:50:05.368Z,101669.67
2019-05-26T14:52:34.808Z,101679.84
2019-05-26T14:55:04.340Z,101690.02
2019-05-26T14:57:33.719Z,101701.05
2019-05-26T15:00:03.106Z,101716.62
2019-05-26T15:02:32.442Z,101728.97
2019-05-26T15:05:01.861Z,101735.66
2019-05-26T15:07:31.221Z,101753.56
2019-05-26T15:10:00.527Z,101769.92
2019-05-26T15:12:29.913Z,101792.02
2019-05-26T15:14:59.238Z,101810.59
2019-05-26T15:17:28.582Z,101817.52
2019-05-26T15:19:57.982Z,101828.69
2019-05-26T15:22:27.327Z,101832.93
2019-05-26T15:24:56.690Z,101826.11
2019-05-26T15:27:26.089Z,101823.76
2019-05-26T15:29:55.452Z,101843.45
2019-05-26T15:32:24.785Z,101829.36
2019-05-26T15:34:54.177Z,101825.81
2019-05-26T15:37:23.537Z,101825.63
2019-05-26T15:39:52.923Z,101815.69
2019-05-26T15:42:22.304Z,101816.46
2019-05-26T15:44:51.695Z,101813.06
2019-05-26T15:47:21.075Z,101814.97
2019-05-26T15:49:50.462Z,101812.50
2019-05-26T15:52:19.846Z,101813.25
2019-05-26T15:54:49.186Z,101803.54
2019-05-26T15:57:18.643Z,101793.65
2019-05-26T15:59:48.030Z,101796.73
2019-05-26T16:02:17.397Z,101802.83
2019-05-26T16:04:46.789Z,101790.91
2019-05-26T16:07:16.161Z,101789.74
2019-05-26T16:09:45.533Z,101786.09
2019-05-26T16:12:14.943Z,101784.70
2019-05-26T16:14:44.328Z,101785.52
2019-05-26T16:17:13.732Z,101784.42
2019-05-26T16:19:43.110Z,101788.95
2019-05-26T16:22:12.479Z,101793.77
2019-05-26T16:24:41.864Z,101794.84
2019-05-26T16:27:19.164Z,101797.09
2019-05-26T16:29:42.285Z,101793.70
2019-05-26T16:32:11.690Z,101794.42
2019-05-26T16:34:41.043Z,101791.03
2019-05-26T16:37:10.427Z,101768.28
2019-05-26T16:39:39.846Z,101763.25
2019-05-26T16:42:09.170Z,101768.24
2019-05-26T16:44:38.530Z,101747.63
2019-05-26T16:47:07.929Z,101758.35
2019-05-26T16:49:37.316Z,101763.73
2019-05-26T16:52:06.762Z,101759.59
2019-05-26T16:54:36.123Z,101753.49
2019-05-26T16:57:05.590Z,101741.55
2019-05-26T16:59:34.969Z,101753.36
2019-05-26T17:02:04.472Z,101756.94
2019-05-26T17:04:33.843Z,101745.97
2019-05-26T17:07:03.223Z,101750.36
2019-05-26T17:09:32.634Z,101740.30
2019-05-26T17:12:02.021Z,101745.68
2019-05-26T17:14:31.375Z,101753.02
2019-05-26T17:17:14.252Z,101753.39
2019-05-26T17:19:31.838Z,101749.48
2019-05-26T17:22:01.199Z,101758.31
2019-05-26T17:24:30.610Z,101741.73
2019-05-26T17:26:59.986Z,101751.38
2019-05-26T17:29:29.390Z,101752.92
2019-05-26T17:31:58.750Z,101750.91
2019-05-26T17:34:28.094Z,101747.91
2019-05-26T17:36:57.492Z,101738.86
2019-05-26T17:39:26.834Z,101744.72
2019-05-26T17:41:56.174Z,101743.81
2019-05-26T17:44:25.552Z,101754.97
2019-05-26T17:46:54.945Z,101747.16
2019-05-26T17:49:24.303Z,101747.63
2019-05-26T17:51:53.690Z,101743.53
2019-05-26T17:54:23.059Z,101740.47
2019-05-26T17:56:52.468Z,101740.41
2019-05-26T17:59:21.890Z,101741.33
2019-05-26T18:01:51.261Z,101753.27
2019-05-26T18:04:20.632Z,101758.09
2019-05-26T18:06:50.033Z,101761.07
2019-05-26T18:09:19.405Z,101753.18
2019-05-26T18:11:48.782Z,101753.39
2019-05-26T18:14:18.198Z,101763.80
2019-05-26T18:16:47.528Z,101748.73
2019-05-26T18:19:16.908Z,101755.87
2019-05-26T18:21:46.334Z,101758.88
2019-05-26T18:24:15.745Z,101760.27
2019-05-26T18:26:45.105Z,101762.49
2019-05-26T18:29:14.469Z,101761.78
2019-05-26T18:31:44.229Z,101762.05
2019-05-26T18:34:13.863Z,101764.34
2019-05-26T18:36:43.232Z,101769.62
2019-05-26T18:39:12.625Z,101761.53
2019-05-26T18:41:41.972Z,101760.27
2019-05-26T18:44:11.338Z,101757.50
2019-05-26T18:46:40.748Z,101752.80
2019-05-26T18:49:10.125Z,101762.87
2019-05-26T18:51:39.528Z,101763.91
2019-05-26T18:54:08.935Z,101767.66
2019-05-26T18:56:38.296Z,101763.95
2019-05-26T18:59:07.719Z,101763.96
2019-05-26T19:01:37.161Z,101762.19
2019-05-26T19:04:06.545Z,101776.59
2019-05-26T19:06:35.957Z,101777.13
2019-05-26T19:09:08.098Z,101778.69
2019-05-26T19:11:37.619Z,101784.42
2019-05-26T19:14:07.072Z,101787.84
2019-05-26T19:16:36.461Z,101792.00
2019-05-26T19:19:05.937Z,101787.35
2019-05-26T19:21:35.420Z,101801.02
2019-05-26T19:24:04.945Z,101805.70
2019-05-26T19:26:34.296Z,101806.06
2019-05-26T19:29:03.679Z,101803.67
2019-05-26T19:31:33.062Z,101805.27
2019-05-26T19:34:03.555Z,101801.62
2019-05-26T19:36:32.912Z,101801.96
2019-05-26T19:39:02.295Z,101800.94
2019-05-26T19:41:31.692Z,101815.46
2019-05-26T19:44:01.030Z,101812.58
2019-05-26T19:46:30.378Z,101809.53
2019-05-26T19:48:59.781Z,101814.84
2019-05-26T19:51:29.124Z,101814.80
2019-05-26T19:53:58.478Z,101824.44
2019-05-26T19:56:27.954Z,101825.62
2019-05-26T19:58:57.746Z,101821.23
2019-05-26T20:01:27.127Z,101822.48
2019-05-26T20:03:56.543Z,101824.67
2019-05-26T20:06:25.897Z,101821.23
2019-05-26T20:08:55.289Z,101830.45
2019-05-26T20:11:24.672Z,101826.89
2019-05-26T20:13:54.078Z,101819.63
2019-05-26T20:16:23.415Z,101836.40
2019-05-26T20:18:52.761Z,101827.61
2019-05-26T20:21:22.168Z,101834.88
2019-05-26T20:23:51.539Z,101836.09
2019-05-26T20:26:20.898Z,101840.88
2019-05-26T20:28:50.238Z,101840.05
2019-05-26T20:31:19.590Z,101845.97
2019-05-26T20:33:48.975Z,101845.97
2019-05-26T20:36:18.368Z,101847.06
2019-05-26T20:38:47.771Z,101855.99
2019-05-26T20:41:17.162Z,101857.94
2019-05-26T20:43:46.504Z,101855.92
2019-05-26T20:46:15.914Z,101849.34
2019-05-26T20:48:45.282Z,101849.34
2019-05-26T20:51:14.656Z,101855.73
2019-05-26T20:53:44.072Z,101853.25
2019-05-26T20:56:13.435Z,101848.15
2019-05-26T20:58:42.815Z,101856.11
2019-05-26T21:01:13.211Z,101854.39
2019-05-26T21:03:42.922Z,101855.80
2019-05-26T21:06:12.296Z,101855.84
2019-05-26T21:08:41.654Z,101857.70
2019-05-26T21:11:11.076Z,101860.47
2019-05-26T21:13:40.727Z,101864.48
2019-05-26T21:16:10.106Z,101856.22
2019-05-26T21:18:39.459Z,101859.78
2019-05-26T21:21:08.810Z,101861.55
2019-05-26T21:23:39.187Z,101853.73
2019-05-26T21:26:08.652Z,101862.12
2019-05-26T21:28:38.038Z,101856.10
2019-05-26T21:31:07.596Z,101854.02
2019-05-26T21:33:37.034Z,101859.41
2019-05-26T21:36:09.459Z,101859.14
2019-05-26T21:38:38.810Z,101859.14
2019-05-26T21:41:08.192Z,101844.23
2019-05-26T21:43:37.540Z,101844.23
2019-05-26T21:46:06.899Z,101850.73
2019-05-26T21:48:36.281Z,101850.73
2019-05-26T21:51:05.672Z,101850.42
2019-05-26T21:53:35.030Z,101844.32
2019-05-26T21:56:04.404Z,101848.30
2019-05-26T21:58:33.805Z,101845.37
2019-05-26T22:01:04.361Z,101839.41
2019-05-26T22:03:34.002Z,101841.25
2019-05-26T22:06:03.425Z,101839.63
2019-05-26T22:08:32.805Z,101843.24
2019-05-26T22:11:02.218Z,101846.77
2019-05-26T22:13:31.700Z,101843.01
2019-05-26T22:16:01.718Z,101840.89
2019-05-26T22:18:31.083Z,101844.05
2019-05-26T22:21:00.475Z,101842.34
2019-05-26T22:23:29.829Z,101839.35
2019-05-26T22:26:00.284Z,101836.33
2019-05-26T22:28:29.666Z,101838.09
2019-05-26T22:30:59.078Z,101832.94
2019-05-26T22:33:28.467Z,101822.99
2019-05-26T22:35:57.856Z,101823.90
2019-05-26T22:38:27.225Z,101827.06
2019-05-26T22:40:56.619Z,101825.34
2019-05-26T22:43:25.974Z,101832.34
2019-05-26T22:45:55.332Z,101824.58
2019-05-26T22:48:24.716Z,101824.17
2019-05-26T22:50:54.068Z,101827.33
2019-05-26T22:53:23.430Z,101828.23
2019-05-26T22:55:52.825Z,101824.84
2019-05-26T22:58:22.223Z,101825.75
2019-05-26T23:00:51.584Z,101827.23
2019-05-26T23:03:20.989Z,101829.90
2019-05-26T23:05:50.355Z,101822.58
2019-05-26T23:08:19.779Z,101830.97
2019-05-26T23:10:49.177Z,101825.78
2019-05-26T23:13:18.613Z,101825.01
2019-05-26T23:15:47.981Z,101819.45
2019-05-26T23:18:17.324Z,101818.19
2019-05-26T23:20:46.689Z,101821.34
2019-05-26T23:23:16.062Z,101816.64
2019-05-26T23:25:45.462Z,101809.32
2019-05-26T23:28:14.896Z,101809.37
2019-05-26T23:30:44.269Z,101810.31
2019-05-26T23:33:13.635Z,101809.05
2019-05-26T23:35:43.014Z,101804.88
2019-05-26T23:38:12.374Z,101805.39
2019-05-26T23:40:41.738Z,101803.30
2019-05-26T23:43:11.125Z,101800.36
2019-05-26T23:45:40.489Z,101801.75
2019-05-26T23:48:09.859Z,101798.33
2019-05-26T23:50:39.250Z,101794.94
2019-05-26T23:53:08.640Z,101790.61
2019-05-26T23:55:38.001Z,101795.02
2019-05-26T23:58:07.403Z,101789.59
